createdAt,value
2022-08-24T00:00:08.962Z,7.07
2022-08-24T00:02:35.604Z,11.55
2022-08-24T00:05:02.249Z,10.88
2022-08-24T00:07:28.885Z,8.98
2022-08-24T00:09:55.921Z,12.63
2022-08-24T00:12:22.405Z,10.65
2022-08-24T00:14:49.497Z,7.82
2022-08-24T00:17:16.850Z,20.70
2022-08-24T00:19:43.803Z,14.07
2022-08-24T00:22:10.307Z,9.90
2022-08-24T00:24:37.039Z,10.55
2022-08-24T00:27:04.392Z,11.15
2022-08-24T00:29:30.970Z,17.17
2022-08-24T00:31:57.468Z,9.73
2022-08-24T00:34:24.043Z,14.93
2022-08-24T00:36:50.808Z,11.05
2022-08-24T00:39:17.392Z,12.70
2022-08-24T00:41:46.857Z,10.18
2022-08-24T00:44:14.337Z,9.88
2022-08-24T00:46:44.409Z,7.75
2022-08-24T00:49:19.847Z,7.97
2022-08-24T00:51:55.577Z,8.95
2022-08-24T00:54:26.036Z,8.77
2022-08-24T00:56:56.676Z,9.95
2022-08-24T00:59:32.669Z,11.80
2022-08-24T01:02:15.579Z,10.57
2022-08-24T01:04:51.940Z,13.50
2022-08-24T01:07:27.218Z,12.38
2022-08-24T01:09:56.464Z,13.85
2022-08-24T01:12:25.299Z,13.63
2022-08-24T01:14:52.379Z,10.73
2022-08-24T01:17:39.057Z,9.68
2022-08-24T01:20:08.699Z,8.80
2022-08-24T01:22:56.522Z,9.23
2022-08-24T01:25:26.201Z,12.85
2022-08-24T01:27:55.822Z,9.95
2022-08-24T01:30:30.473Z,9.70
2022-08-24T01:33:06.450Z,13.68
2022-08-24T01:35:36.549Z,12.45
2022-08-24T01:38:08.178Z,12.60
2022-08-24T01:43:06.464Z,12.27
2022-08-24T01:45:33.374Z,7.30
2022-08-24T01:48:00.016Z,11.48
2022-08-24T01:50:26.875Z,9.98
2022-08-24T01:53:08.840Z,14.32
2022-08-24T01:55:36.509Z,11.63
2022-08-24T01:58:04.312Z,9.57
2022-08-24T02:00:30.983Z,13.20
2022-08-24T02:02:57.662Z,13.85
2022-08-24T02:05:25.698Z,15.30
2022-08-24T02:07:52.969Z,8.55
2022-08-24T02:10:19.733Z,12.70
2022-08-24T02:12:57.708Z,12.23
2022-08-24T02:15:42.739Z,15.38
2022-08-24T02:18:15.391Z,14.00
2022-08-24T02:20:43.089Z,10.77
2022-08-24T02:23:09.663Z,14.35
2022-08-24T02:25:36.211Z,14.60
2022-08-24T02:28:03.106Z,14.18
2022-08-24T02:30:30.096Z,15.25
2022-08-24T02:32:57.588Z,15.75
2022-08-24T02:35:24.570Z,20.35
2022-08-24T02:37:52.177Z,27.13
2022-08-24T02:40:18.715Z,25.88
2022-08-24T02:42:45.880Z,27.27
2022-08-24T02:45:12.556Z,28.05
2022-08-24T02:47:39.489Z,29.85
2022-08-24T02:50:09.031Z,36.65
2022-08-24T02:52:37.423Z,36.05
2022-08-24T02:55:04.624Z,34.33
2022-08-24T02:57:31.113Z,48.13
2022-08-24T02:59:57.630Z,43.72
2022-08-24T03:02:24.194Z,38.40
2022-08-24T03:04:50.705Z,52.25
2022-08-24T03:07:17.219Z,46.85
2022-08-24T03:09:43.689Z,54.90
2022-08-24T03:12:10.358Z,43.45
2022-08-24T03:14:37.206Z,46.05
2022-08-24T03:17:04.038Z,48.85
2022-08-24T03:19:30.690Z,46.45
2022-08-24T03:21:57.677Z,51.63
2022-08-24T03:24:24.197Z,41.85
2022-08-24T03:26:50.879Z,45.00
2022-08-24T03:29:17.702Z,51.85
2022-08-24T03:31:44.512Z,41.22
2022-08-24T03:34:13.456Z,37.88
2022-08-24T03:36:41.661Z,39.67
2022-08-24T03:39:08.169Z,49.30
2022-08-24T03:41:36.608Z,40.95
2022-08-24T03:44:04.045Z,46.53
2022-08-24T03:46:36.785Z,38.85
2022-08-24T03:49:06.770Z,52.25
2022-08-24T03:51:33.262Z,45.15
2022-08-24T03:54:00.100Z,44.42
2022-08-24T03:56:27.763Z,43.13
2022-08-24T03:58:55.069Z,42.03
2022-08-24T04:01:22.427Z,38.72
2022-08-24T04:03:50.060Z,37.88
2022-08-24T04:06:19.259Z,38.70
2022-08-24T04:08:46.685Z,42.30
2022-08-24T04:11:19.671Z,39.45
2022-08-24T04:13:46.925Z,47.33
2022-08-24T04:16:17.942Z,40.25
2022-08-24T04:18:44.918Z,39.70
2022-08-24T04:21:25.057Z,49.15
2022-08-24T04:23:52.539Z,38.35
2022-08-24T04:26:28.668Z,39.40
2022-08-24T04:29:10.095Z,41.13
2022-08-24T04:31:38.261Z,45.88
2022-08-24T04:34:06.028Z,37.88
2022-08-24T04:36:32.824Z,47.08
2022-08-24T04:39:00.918Z,40.92
2022-08-24T04:41:31.107Z,42.30
2022-08-24T04:43:59.354Z,39.55
2022-08-24T04:46:26.794Z,38.88
2022-08-24T04:48:53.556Z,43.45
2022-08-24T04:51:21.226Z,37.60
2022-08-24T04:53:48.957Z,47.10
2022-08-24T04:56:23.147Z,43.17
2022-08-24T04:58:50.954Z,42.60
2022-08-24T05:01:21.979Z,37.55
2022-08-24T05:03:50.500Z,36.47
2022-08-24T05:06:21.990Z,36.28
2022-08-24T05:08:48.798Z,38.83
2022-08-24T05:11:17.588Z,35.08
2022-08-24T05:13:44.349Z,41.00
2022-08-24T05:16:14.131Z,38.17
2022-08-24T05:18:41.706Z,37.47
2022-08-24T05:21:12.304Z,33.08
2022-08-24T05:23:39.914Z,38.75
2022-08-24T05:26:14.761Z,37.80
2022-08-24T05:28:41.836Z,36.85
2022-08-24T05:31:09.727Z,41.53
2022-08-24T05:33:36.891Z,39.65
2022-08-24T05:36:04.529Z,40.35
2022-08-24T05:38:33.302Z,35.17
2022-08-24T05:41:05.490Z,32.75
2022-08-24T05:43:32.279Z,32.13
2022-08-24T05:45:58.745Z,38.92
2022-08-24T05:48:25.237Z,56.10
2022-08-24T05:50:53.878Z,47.90
2022-08-24T05:53:20.379Z,33.05
2022-08-24T05:55:47.096Z,31.17
2022-08-24T05:58:15.290Z,35.95
2022-08-24T06:00:50.301Z,33.65
2022-08-24T06:03:17.180Z,34.38
2022-08-24T06:05:45.151Z,37.85
2022-08-24T06:08:11.749Z,30.90
2022-08-24T06:10:47.647Z,30.02
2022-08-24T06:13:14.682Z,33.80
2022-08-24T06:15:42.755Z,38.65
2022-08-24T06:18:14.760Z,34.75
2022-08-24T06:20:43.009Z,36.92
2022-08-24T06:23:12.622Z,37.22
2022-08-24T06:25:58.710Z,34.80
2022-08-24T06:28:25.912Z,31.83
2022-08-24T06:31:05.340Z,30.63
2022-08-24T06:33:31.867Z,29.50
2022-08-24T06:35:58.413Z,29.95
2022-08-24T06:38:25.651Z,31.25
2022-08-24T06:40:52.485Z,30.08
2022-08-24T06:43:18.986Z,36.47
2022-08-24T06:45:46.464Z,25.40
2022-08-24T06:48:12.932Z,30.65
2022-08-24T06:50:39.979Z,30.73
2022-08-24T06:53:06.467Z,27.65
2022-08-24T06:55:33.226Z,27.88
2022-08-24T06:58:00.077Z,26.23
2022-08-24T07:00:26.573Z,36.33
2022-08-24T07:02:53.125Z,31.60
2022-08-24T07:05:19.680Z,27.55
2022-08-24T07:07:46.860Z,27.42
2022-08-24T07:10:13.345Z,31.02
2022-08-24T07:12:39.880Z,45.17
2022-08-24T07:15:16.257Z,31.13
2022-08-24T07:17:43.130Z,32.30
2022-08-24T07:20:10.430Z,29.42
2022-08-24T07:22:36.923Z,25.63
2022-08-24T07:25:04.398Z,28.90
2022-08-24T07:27:31.379Z,26.45
2022-08-24T07:30:23.122Z,32.40
2022-08-24T07:32:44.340Z,29.83
2022-08-24T07:35:10.832Z,28.25
2022-08-24T07:37:41.264Z,27.08
2022-08-24T07:40:09.306Z,27.83
2022-08-24T07:42:35.901Z,23.65
2022-08-24T07:45:02.741Z,35.78
2022-08-24T07:47:54.617Z,23.42
2022-08-24T07:50:18.033Z,24.25
2022-08-24T07:52:45.668Z,31.15
2022-08-24T07:55:13.959Z,25.20
2022-08-24T07:57:41.833Z,28.52
2022-08-24T08:00:11.465Z,25.50
2022-08-24T08:02:39.956Z,23.90
2022-08-24T08:05:06.843Z,24.25
2022-08-24T08:07:33.536Z,22.60
2022-08-24T08:10:01.925Z,23.90
2022-08-24T08:12:28.404Z,27.33
2022-08-24T08:14:55.006Z,26.10
2022-08-24T08:17:21.522Z,28.55
2022-08-24T08:19:48.086Z,27.85
2022-08-24T08:22:33.051Z,29.05
2022-08-24T08:24:59.556Z,25.70
2022-08-24T08:27:26.435Z,26.45
2022-08-24T08:29:53.048Z,23.42
2022-08-24T08:32:20.143Z,25.13
2022-08-24T08:34:47.549Z,21.65
2022-08-24T08:37:15.189Z,17.70
2022-08-24T08:39:42.027Z,20.58
2022-08-24T08:42:31.727Z,20.75
2022-08-24T08:45:25.308Z,15.57
2022-08-24T08:48:17.236Z,15.98
2022-08-24T08:51:05.703Z,16.83
2022-08-24T08:53:57.625Z,14.85
2022-08-24T08:56:44.090Z,13.23
2022-08-24T08:59:10.519Z,19.48
2022-08-24T09:01:44.270Z,16.17
2022-08-24T09:04:32.403Z,15.00
2022-08-24T09:07:37.715Z,17.15
2022-08-24T09:10:23.791Z,14.50
2022-08-24T09:12:59.025Z,19.35
2022-08-24T09:15:50.504Z,22.05
2022-08-24T09:18:37.640Z,17.80
2022-08-24T09:21:38.268Z,21.15
2022-08-24T09:24:16.545Z,21.83
2022-08-24T09:26:55.893Z,21.10
2022-08-24T09:29:47.316Z,18.05
2022-08-24T09:32:32.112Z,15.95
2022-08-24T09:35:03.322Z,20.30
2022-08-24T09:38:04.375Z,16.50
2022-08-24T09:40:42.870Z,14.32
2022-08-24T09:43:31.498Z,15.95
2022-08-24T09:46:09.050Z,17.98
2022-08-24T09:48:39.340Z,19.42
2022-08-24T09:51:05.754Z,16.92
2022-08-24T09:53:47.658Z,17.90
2022-08-24T09:56:26.341Z,20.33
2022-08-24T09:59:18.580Z,20.48
2022-08-24T10:02:03.454Z,22.08
2022-08-24T10:04:44.800Z,19.77
2022-08-24T10:07:17.548Z,19.42
2022-08-24T10:09:52.779Z,24.42
2022-08-24T10:12:22.019Z,16.98
2022-08-24T10:15:05.635Z,20.40
2022-08-24T10:17:43.746Z,16.30
2022-08-24T10:20:26.314Z,15.93
2022-08-24T10:23:17.121Z,22.65
2022-08-24T10:25:52.484Z,14.67
2022-08-24T10:28:36.354Z,15.40
2022-08-24T10:31:12.076Z,20.15
2022-08-24T10:34:16.722Z,14.65
2022-08-24T10:36:57.624Z,16.48
2022-08-24T10:39:51.774Z,21.15
2022-08-24T10:42:52.537Z,14.93
2022-08-24T10:45:41.559Z,17.80
2022-08-24T10:48:33.344Z,17.35
2022-08-24T10:51:19.166Z,25.60
2022-08-24T10:53:51.237Z,19.98
2022-08-24T10:56:20.450Z,17.15
2022-08-24T10:58:49.979Z,25.83
2022-08-24T11:01:22.478Z,16.73
2022-08-24T11:03:59.202Z,16.67
2022-08-24T11:06:30.858Z,24.17
2022-08-24T11:09:05.379Z,21.33
2022-08-24T11:11:44.923Z,24.23
2022-08-24T11:14:30.279Z,19.02
2022-08-24T11:17:24.689Z,25.30
2022-08-24T11:19:52.225Z,20.35
2022-08-24T11:22:44.154Z,17.85
2022-08-24T11:25:19.139Z,24.13
2022-08-24T11:27:52.737Z,18.33
2022-08-24T11:30:24.610Z,18.85
2022-08-24T11:33:06.288Z,16.27
2022-08-24T11:35:35.566Z,17.83
2022-08-24T11:38:19.289Z,17.23
2022-08-24T11:41:00.871Z,22.13
2022-08-24T11:44:05.248Z,18.73
2022-08-24T11:46:39.299Z,17.38
2022-08-24T11:49:05.770Z,18.50
2022-08-24T11:51:36.912Z,24.30
2022-08-24T11:57:11.086Z,18.02
2022-08-24T11:59:58.886Z,17.10
2022-08-24T12:02:34.698Z,17.52
2022-08-24T12:05:14.045Z,15.85
2022-08-24T12:08:05.555Z,21.33
2022-08-24T12:10:40.666Z,16.65
2022-08-24T12:13:20.856Z,11.25
2022-08-24T12:15:56.896Z,21.80
2022-08-24T12:18:39.916Z,20.95
2022-08-24T12:21:12.546Z,17.60
2022-08-24T12:23:44.727Z,19.05
2022-08-24T12:26:22.860Z,18.50
2022-08-24T12:28:54.621Z,17.77
2022-08-24T12:31:36.646Z,15.80
2022-08-24T12:34:10.891Z,12.02
2022-08-24T12:36:50.816Z,14.65
2022-08-24T12:39:25.297Z,13.45
2022-08-24T12:42:25.541Z,18.85
2022-08-24T12:44:58.833Z,20.00
2022-08-24T12:47:33.737Z,17.70
2022-08-24T12:50:14.950Z,20.38
2022-08-24T12:52:51.767Z,15.02
2022-08-24T12:55:52.652Z,17.20
2022-08-24T12:58:54.061Z,23.17
2022-08-24T13:01:27.833Z,15.52
2022-08-24T13:04:13.640Z,15.40
2022-08-24T13:06:49.016Z,22.35
2022-08-24T13:09:28.736Z,20.85
2022-08-24T13:12:00.807Z,17.65
2022-08-24T13:14:29.883Z,17.20
2022-08-24T13:16:56.471Z,13.65
2022-08-24T13:19:23.758Z,14.00
2022-08-24T13:21:54.512Z,13.90
2022-08-24T13:24:32.953Z,25.35
2022-08-24T13:27:11.278Z,17.27
2022-08-24T13:29:41.568Z,16.98
2022-08-24T13:32:17.597Z,12.55
2022-08-24T13:34:46.313Z,16.67
2022-08-24T13:37:28.143Z,27.10
2022-08-24T13:40:28.295Z,18.42
2022-08-24T13:43:23.779Z,78.93
2022-08-24T13:45:59.329Z,16.20
2022-08-24T13:48:54.733Z,12.25
2022-08-24T13:51:45.349Z,16.67
2022-08-24T13:54:42.232Z,17.40
2022-08-24T13:57:42.960Z,17.38
2022-08-24T14:00:41.605Z,14.35
2022-08-24T14:03:13.579Z,12.32
2022-08-24T14:05:50.616Z,14.43
2022-08-24T14:08:36.264Z,15.43
2022-08-24T14:11:10.817Z,11.88
2022-08-24T14:14:08.118Z,8.60
2022-08-24T14:17:19.984Z,11.75
2022-08-24T14:20:02.966Z,11.13
2022-08-24T14:22:50.858Z,11.88
2022-08-24T14:25:27.993Z,9.23
2022-08-24T14:27:54.454Z,12.77
2022-08-24T14:30:23.349Z,10.20
2022-08-24T14:32:58.825Z,12.55
2022-08-24T14:35:31.827Z,16.48
2022-08-24T14:38:10.613Z,13.80
2022-08-24T14:40:55.061Z,16.23
2022-08-24T14:43:31.283Z,15.68
2022-08-24T14:46:13.347Z,13.18
2022-08-24T14:49:05.401Z,15.98
2022-08-24T14:52:02.412Z,18.38
2022-08-24T14:54:41.402Z,14.32
2022-08-24T14:57:40.297Z,18.23
2022-08-24T15:00:34.918Z,15.55
2022-08-24T15:03:12.211Z,19.52
2022-08-24T15:06:16.010Z,13.77
2022-08-24T15:08:43.099Z,20.05
2022-08-24T15:11:17.742Z,17.83
2022-08-24T15:14:02.456Z,22.20
2022-08-24T15:16:53.950Z,20.58
2022-08-24T15:19:35.592Z,22.67
2022-08-24T15:22:06.751Z,14.50
2022-08-24T15:24:54.925Z,21.17
2022-08-24T15:27:50.923Z,15.00
2022-08-24T15:30:27.354Z,15.13
2022-08-24T15:33:18.454Z,12.48
2022-08-24T15:36:06.614Z,10.90
2022-08-24T15:38:35.513Z,12.38
2022-08-24T15:41:16.172Z,12.70
2022-08-24T15:43:49.083Z,10.00
2022-08-24T15:46:21.840Z,14.95
2022-08-24T15:48:50.555Z,11.32
2022-08-24T15:51:33.993Z,13.65
2022-08-24T15:54:15.729Z,13.95
2022-08-24T15:56:48.550Z,14.25
2022-08-24T15:59:29.482Z,17.75
2022-08-24T16:02:28.537Z,12.38
2022-08-24T16:05:16.747Z,21.92
2022-08-24T16:08:01.718Z,13.55
2022-08-24T16:10:49.542Z,14.57
2022-08-24T16:13:18.779Z,15.48
2022-08-24T16:15:46.690Z,12.02
2022-08-24T16:18:15.269Z,11.20
2022-08-24T16:20:42.207Z,12.82
2022-08-24T16:23:13.507Z,18.65
2022-08-24T16:28:35.499Z,17.75
2022-08-24T16:31:07.962Z,16.13
2022-08-24T16:33:43.640Z,14.27
2022-08-24T16:36:20.789Z,12.27
2022-08-24T16:38:49.888Z,12.20
2022-08-24T16:41:24.236Z,14.90
2022-08-24T16:43:51.381Z,13.75
2022-08-24T16:46:23.447Z,16.20
2022-08-24T16:48:50.268Z,17.67
2022-08-24T16:51:16.770Z,14.13
2022-08-24T16:53:43.770Z,16.55
2022-08-24T16:56:12.585Z,12.93
2022-08-24T16:58:42.750Z,19.15
2022-08-24T17:01:09.270Z,14.93
2022-08-24T17:03:35.769Z,10.85
2022-08-24T17:06:02.302Z,17.05
2022-08-24T17:08:29.000Z,13.75
2022-08-24T17:10:55.626Z,18.20
2022-08-24T17:16:12.164Z,12.95
2022-08-24T17:18:39.191Z,13.98
2022-08-24T17:21:07.749Z,8.25
2022-08-24T17:23:34.424Z,13.85
2022-08-24T17:26:03.410Z,14.52
2022-08-24T17:28:30.791Z,16.50
2022-08-24T17:30:57.295Z,14.10
2022-08-24T17:33:24.056Z,14.07
2022-08-24T17:35:54.316Z,14.70
2022-08-24T17:38:21.547Z,14.90
2022-08-24T17:40:49.500Z,10.18
2022-08-24T17:43:16.428Z,11.85
2022-08-24T17:45:43.051Z,13.38
2022-08-24T17:48:21.201Z,11.43
2022-08-24T17:50:47.689Z,13.25
2022-08-24T17:53:14.161Z,14.77
2022-08-24T17:55:40.652Z,11.10
2022-08-24T17:58:07.312Z,19.33
2022-08-24T18:00:34.173Z,11.93
2022-08-24T18:03:00.797Z,13.73
2022-08-24T18:05:27.353Z,14.73
2022-08-24T18:07:55.733Z,13.00
2022-08-24T18:10:28.017Z,12.35
2022-08-24T18:12:55.802Z,15.90
2022-08-24T18:15:33.601Z,21.92
2022-08-24T18:18:05.372Z,12.95
2022-08-24T18:20:36.416Z,9.80
2022-08-24T18:23:03.269Z,15.40
2022-08-24T18:25:38.063Z,19.73
2022-08-24T18:28:04.761Z,17.15
2022-08-24T18:30:32.028Z,29.65
2022-08-24T18:33:02.219Z,11.07
2022-08-24T18:35:30.701Z,12.85
2022-08-24T18:37:57.325Z,13.32
2022-08-24T18:40:25.173Z,13.55
2022-08-24T18:42:57.419Z,9.38
2022-08-24T18:45:30.750Z,10.13
2022-08-24T18:47:57.378Z,16.75
2022-08-24T18:50:24.059Z,18.25
2022-08-24T18:52:50.638Z,12.85
2022-08-24T18:55:17.170Z,11.25
2022-08-24T18:57:43.648Z,9.68
2022-08-24T19:00:11.037Z,8.30
2022-08-24T19:02:38.190Z,14.30
2022-08-24T19:05:07.075Z,19.10
2022-08-24T19:07:38.432Z,13.63
2022-08-24T19:10:06.444Z,13.25
2022-08-24T19:12:39.285Z,12.93
2022-08-24T19:15:09.632Z,17.85
2022-08-24T19:17:56.529Z,12.48
2022-08-24T19:20:23.087Z,12.77
2022-08-24T19:22:52.297Z,7.75
2022-08-24T19:25:25.919Z,18.75
2022-08-24T19:27:55.143Z,9.25
2022-08-24T19:30:22.108Z,12.93
2022-08-24T19:32:49.065Z,18.20
2022-08-24T19:35:16.248Z,14.57
2022-08-24T19:37:43.541Z,14.13
2022-08-24T19:40:11.405Z,19.38
2022-08-24T19:42:38.119Z,12.27
2022-08-24T19:45:25.694Z,12.98
2022-08-24T19:47:52.285Z,16.40
2022-08-24T19:50:21.274Z,10.05
2022-08-24T19:52:48.320Z,12.70
2022-08-24T19:55:14.986Z,9.73
2022-08-24T19:57:43.180Z,11.00
2022-08-24T20:00:18.850Z,11.50
2022-08-24T20:02:47.433Z,9.35
2022-08-24T20:05:14.377Z,8.38
2022-08-24T20:07:42.011Z,14.15
2022-08-24T20:10:12.857Z,14.82
2022-08-24T20:12:40.330Z,11.07
2022-08-24T20:15:07.267Z,12.20
2022-08-24T20:17:34.978Z,10.40
2022-08-24T20:20:02.301Z,15.63
2022-08-24T20:22:29.188Z,12.07
2022-08-24T20:24:56.101Z,14.95
2022-08-24T20:27:27.683Z,11.38
2022-08-24T20:32:21.757Z,15.35
2022-08-24T20:34:48.612Z,11.65
2022-08-24T20:37:23.305Z,9.00
2022-08-24T20:39:50.060Z,9.70
2022-08-24T20:42:21.105Z,11.88
2022-08-24T20:44:48.125Z,10.25
2022-08-24T20:47:15.143Z,20.20
2022-08-24T20:49:41.900Z,8.35
2022-08-24T20:52:08.789Z,15.43
2022-08-24T20:54:39.735Z,10.90
2022-08-24T20:57:08.620Z,11.13
2022-08-24T20:59:35.387Z,16.05
2022-08-24T21:02:03.195Z,10.40
2022-08-24T21:04:32.746Z,14.50
2022-08-24T21:06:59.363Z,8.93
2022-08-24T21:09:26.479Z,10.68
2022-08-24T21:11:53.045Z,8.55
2022-08-24T21:14:20.030Z,12.27
2022-08-24T21:16:47.176Z,13.70
2022-08-24T21:19:17.343Z,17.60
2022-08-24T21:21:45.117Z,12.30
2022-08-24T21:24:11.831Z,12.27
2022-08-24T21:26:39.188Z,9.05
2022-08-24T21:29:07.157Z,16.67
2022-08-24T21:31:33.922Z,8.77
2022-08-24T21:34:19.350Z,11.70
2022-08-24T21:36:47.782Z,14.27
2022-08-24T21:39:14.289Z,8.98
2022-08-24T21:41:41.189Z,9.52
2022-08-24T21:44:07.753Z,15.27
2022-08-24T21:46:37.389Z,12.45
2022-08-24T21:49:04.634Z,13.30
2022-08-24T21:51:31.499Z,18.23
2022-08-24T21:53:59.756Z,18.25
2022-08-24T21:56:30.733Z,12.63
2022-08-24T21:58:57.330Z,9.97
2022-08-24T22:01:23.900Z,9.15
2022-08-24T22:03:50.503Z,13.27
2022-08-24T22:06:17.066Z,14.52
2022-08-24T22:08:44.328Z,15.82
2022-08-24T22:11:13.213Z,13.93
2022-08-24T22:13:40.294Z,12.40
2022-08-24T22:16:07.676Z,18.85
2022-08-24T22:18:35.449Z,16.83
2022-08-24T22:21:17.107Z,14.07
2022-08-24T22:26:11.186Z,15.73
2022-08-24T22:28:40.287Z,18.42
2022-08-24T22:31:22.673Z,10.57
2022-08-24T22:33:49.894Z,11.00
2022-08-24T22:36:17.361Z,9.02
2022-08-24T22:38:44.399Z,12.05
2022-08-24T22:41:11.339Z,11.82
2022-08-24T22:43:57.239Z,13.18
2022-08-24T22:46:24.352Z,15.57
2022-08-24T22:48:50.938Z,11.82
2022-08-24T22:51:18.751Z,11.48
2022-08-24T22:53:46.159Z,15.77
2022-08-24T22:56:23.029Z,13.35
2022-08-24T22:58:50.046Z,18.02
2022-08-24T23:01:27.332Z,11.38
2022-08-24T23:03:55.307Z,15.88
2022-08-24T23:06:22.049Z,16.70
2022-08-24T23:08:48.760Z,16.58
2022-08-24T23:11:16.298Z,11.70
2022-08-24T23:13:43.112Z,14.27
2022-08-24T23:16:13.309Z,17.75
2022-08-24T23:18:59.595Z,14.85
2022-08-24T23:21:26.496Z,9.77
2022-08-24T23:23:55.394Z,13.60
2022-08-24T23:26:21.933Z,11.80
2022-08-24T23:28:49.409Z,17.65
2022-08-24T23:31:19.019Z,17.30
2022-08-24T23:33:46.084Z,13.70
2022-08-24T23:36:21.066Z,13.18
2022-08-24T23:38:49.160Z,13.23
2022-08-24T23:41:17.920Z,13.27
2022-08-24T23:43:44.462Z,13.68
2022-08-24T23:46:11.756Z,12.68
2022-08-24T23:48:40.508Z,10.85
2022-08-24T23:51:08.942Z,12.98
2022-08-24T23:53:35.986Z,18.35
2022-08-24T23:56:08.553Z,16.15
2022-08-24T23:58:36.314Z,12.80
